sensor_id;sensor_type;location;lat;lon;timestamp;pressure;altitude;pressure_sealevel;temperature;humidity
21011;BME280;10663;42.714;23.274;2023-05-02T00:00:30;95080.66;;;15.87;53.57
21011;BME280;10663;42.714;23.274;2023-05-02T00:02:02;95080.22;;;15.80;53.72
21011;BME280;10663;42.714;23.274;2023-05-02T00:03:33;95080.13;;;15.85;53.80
21011;BME280;10663;42.714;23.274;2023-05-02T00:05:05;95080.34;;;15.88;53.38
21011;BME280;10663;42.714;23.274;2023-05-02T00:06:36;95075.03;;;15.88;53.58
21011;BME280;10663;42.714;23.274;2023-05-02T00:08:07;95079.84;;;15.86;53.71
21011;BME280;10663;42.714;23.274;2023-05-02T00:09:38;95078.84;;;15.82;53.98
21011;BME280;10663;42.714;23.274;2023-05-02T00:11:09;95068.72;;;15.79;54.01
21011;BME280;10663;42.714;23.274;2023-05-02T00:12:40;95068.50;;;15.76;53.96
21011;BME280;10663;42.714;23.274;2023-05-02T00:14:11;95070.19;;;15.71;54.18
21011;BME280;10663;42.714;23.274;2023-05-02T00:15:42;95077.03;;;15.78;53.84
21011;BME280;10663;42.714;23.274;2023-05-02T00:17:16;95071.91;;;15.81;53.81
21011;BME280;10663;42.714;23.274;2023-05-02T00:18:48;95066.47;;;15.67;54.23
21011;BME280;10663;42.714;23.274;2023-05-02T00:20:19;95074.63;;;15.76;54.25
21011;BME280;10663;42.714;23.274;2023-05-02T00:21:50;95072.56;;;15.73;54.44
21011;BME280;10663;42.714;23.274;2023-05-02T00:23:21;95077.66;;;15.69;54.56
21011;BME280;10663;42.714;23.274;2023-05-02T00:24:56;95076.03;;;15.74;54.35
21011;BME280;10663;42.714;23.274;2023-05-02T00:26:27;95078.34;;;15.80;54.40
21011;BME280;10663;42.714;23.274;2023-05-02T00:27:58;95082.97;;;15.75;54.41
21011;BME280;10663;42.714;23.274;2023-05-02T00:29:29;95084.09;;;15.68;54.78
21011;BME280;10663;42.714;23.274;2023-05-02T00:31:00;95093.19;;;15.67;54.75
21011;BME280;10663;42.714;23.274;2023-05-02T00:32:31;95091.03;;;15.69;54.49
21011;BME280;10663;42.714;23.274;2023-05-02T00:34:03;95087.50;;;15.74;54.47
21011;BME280;10663;42.714;23.274;2023-05-02T00:35:34;95093.66;;;15.75;54.33
21011;BME280;10663;42.714;23.274;2023-05-02T00:37:05;95094.72;;;15.74;54.46
21011;BME280;10663;42.714;23.274;2023-05-02T00:38:36;95098.03;;;15.65;54.88
21011;BME280;10663;42.714;23.274;2023-05-02T00:40:07;95098.03;;;15.65;54.95
21011;BME280;10663;42.714;23.274;2023-05-02T00:41:38;95100.19;;;15.63;54.75
21011;BME280;10663;42.714;23.274;2023-05-02T00:43:09;95102.94;;;15.53;54.99
21011;BME280;10663;42.714;23.274;2023-05-02T00:44:40;95105.38;;;15.55;55.29
21011;BME280;10663;42.714;23.274;2023-05-02T00:46:11;95109.00;;;15.64;55.01
21011;BME280;10663;42.714;23.274;2023-05-02T00:47:43;95109.84;;;15.59;55.18
21011;BME280;10663;42.714;23.274;2023-05-02T00:49:13;95106.47;;;15.49;55.43
21011;BME280;10663;42.714;23.274;2023-05-02T00:50:44;95105.00;;;15.61;54.97
21011;BME280;10663;42.714;23.274;2023-05-02T00:52:15;95109.91;;;15.54;55.39
21011;BME280;10663;42.714;23.274;2023-05-02T00:53:46;95113.38;;;15.55;55.17
21011;BME280;10663;42.714;23.274;2023-05-02T00:55:18;95113.22;;;15.41;55.73
21011;BME280;10663;42.714;23.274;2023-05-02T00:56:49;95110.84;;;15.40;55.75
21011;BME280;10663;42.714;23.274;2023-05-02T00:58:20;95115.25;;;15.49;55.35
21011;BME280;10663;42.714;23.274;2023-05-02T00:59:51;95105.22;;;15.41;55.72
21011;BME280;10663;42.714;23.274;2023-05-02T01:03:22;95108.06;;;15.50;55.56
21011;BME280;10663;42.714;23.274;2023-05-02T01:07:01;95103.41;;;15.60;55.33
21011;BME280;10663;42.714;23.274;2023-05-02T01:08:38;95099.75;;;15.51;55.83
21011;BME280;10663;42.714;23.274;2023-05-02T01:10:25;95101.72;;;15.46;55.78
21011;BME280;10663;42.714;23.274;2023-05-02T01:12:16;95093.69;;;15.46;55.92
21011;BME280;10663;42.714;23.274;2023-05-02T01:13:52;95105.81;;;15.62;55.40
21011;BME280;10663;42.714;23.274;2023-05-02T01:15:24;95105.53;;;15.63;55.60
21011;BME280;10663;42.714;23.274;2023-05-02T01:16:56;95095.97;;;15.57;55.71
21011;BME280;10663;42.714;23.274;2023-05-02T01:18:34;95092.53;;;15.57;55.73
21011;BME280;10663;42.714;23.274;2023-05-02T01:20:10;95097.97;;;15.47;56.05
21011;BME280;10663;42.714;23.274;2023-05-02T01:21:42;95095.50;;;15.55;56.06
21011;BME280;10663;42.714;23.274;2023-05-02T01:27:00;95086.03;;;15.63;55.98
21011;BME280;10663;42.714;23.274;2023-05-02T01:28:56;95079.03;;;15.67;56.04
21011;BME280;10663;42.714;23.274;2023-05-02T01:30:30;95082.16;;;15.74;55.64
21011;BME280;10663;42.714;23.274;2023-05-02T01:32:03;95075.44;;;15.77;55.59
21011;BME280;10663;42.714;23.274;2023-05-02T01:33:37;95076.44;;;15.62;55.98
21011;BME280;10663;42.714;23.274;2023-05-02T01:35:10;95073.53;;;15.58;56.24
21011;BME280;10663;42.714;23.274;2023-05-02T01:36:43;95078.41;;;15.51;56.42
21011;BME280;10663;42.714;23.274;2023-05-02T01:38:15;95083.09;;;15.64;56.22
21011;BME280;10663;42.714;23.274;2023-05-02T01:39:48;95082.06;;;15.60;56.47
21011;BME280;10663;42.714;23.274;2023-05-02T01:41:25;95087.13;;;15.62;56.28
21011;BME280;10663;42.714;23.274;2023-05-02T01:42:57;95081.53;;;15.58;56.22
21011;BME280;10663;42.714;23.274;2023-05-02T01:44:29;95084.44;;;15.62;56.28
21011;BME280;10663;42.714;23.274;2023-05-02T01:46:04;95093.66;;;15.75;55.94
21011;BME280;10663;42.714;23.274;2023-05-02T01:47:38;95089.06;;;15.56;56.67
21011;BME280;10663;42.714;23.274;2023-05-02T01:49:10;95099.59;;;15.66;56.22
21011;BME280;10663;42.714;23.274;2023-05-02T01:50:43;95092.19;;;15.63;56.31
21011;BME280;10663;42.714;23.274;2023-05-02T01:52:15;95096.78;;;15.58;56.36
21011;BME280;10663;42.714;23.274;2023-05-02T01:53:51;95093.81;;;15.59;56.57
21011;BME280;10663;42.714;23.274;2023-05-02T01:55:23;95086.94;;;15.53;56.55
21011;BME280;10663;42.714;23.274;2023-05-02T01:56:55;95089.59;;;15.53;56.63
21011;BME280;10663;42.714;23.274;2023-05-02T01:58:29;95083.88;;;15.41;57.01
21011;BME280;10663;42.714;23.274;2023-05-02T02:00:03;95088.28;;;15.56;56.67
21011;BME280;10663;42.714;23.274;2023-05-02T02:01:43;95085.09;;;15.49;56.60
21011;BME280;10663;42.714;23.274;2023-05-02T02:03:16;95087.56;;;15.45;56.87
21011;BME280;10663;42.714;23.274;2023-05-02T02:04:50;95085.63;;;15.51;56.86
21011;BME280;10663;42.714;23.274;2023-05-02T02:06:22;95074.00;;;15.42;57.04
21011;BME280;10663;42.714;23.274;2023-05-02T02:07:53;95078.91;;;15.53;56.99
21011;BME280;10663;42.714;23.274;2023-05-02T02:09:24;95080.63;;;15.44;57.04
21011;BME280;10663;42.714;23.274;2023-05-02T02:11:01;95071.16;;;15.33;57.20
21011;BME280;10663;42.714;23.274;2023-05-02T02:12:42;95085.81;;;15.35;57.52
21011;BME280;10663;42.714;23.274;2023-05-02T02:14:20;95081.19;;;15.41;57.10
21011;BME280;10663;42.714;23.274;2023-05-02T02:15:56;95078.09;;;15.58;56.75
21011;BME280;10663;42.714;23.274;2023-05-02T02:17:36;95074.78;;;15.42;57.15
21011;BME280;10663;42.714;23.274;2023-05-02T02:19:12;95080.59;;;15.25;57.82
21011;BME280;10663;42.714;23.274;2023-05-02T02:20:47;95070.59;;;15.36;57.53
21011;BME280;10663;42.714;23.274;2023-05-02T02:22:20;95078.72;;;15.26;57.68
21011;BME280;10663;42.714;23.274;2023-05-02T02:23:54;95074.72;;;15.23;58.00
21011;BME280;10663;42.714;23.274;2023-05-02T02:25:27;95081.38;;;15.26;57.85
21011;BME280;10663;42.714;23.274;2023-05-02T02:26:58;95086.16;;;15.29;57.57
21011;BME280;10663;42.714;23.274;2023-05-02T02:28:29;95083.59;;;15.19;58.13
21011;BME280;10663;42.714;23.274;2023-05-02T02:30:00;95077.06;;;15.30;57.73
21011;BME280;10663;42.714;23.274;2023-05-02T02:31:32;95079.09;;;15.14;58.41
21011;BME280;10663;42.714;23.274;2023-05-02T02:33:05;95084.72;;;15.13;58.39
21011;BME280;10663;42.714;23.274;2023-05-02T02:34:36;95088.88;;;15.24;58.22
21011;BME280;10663;42.714;23.274;2023-05-02T02:36:19;95080.34;;;15.22;58.18
21011;BME280;10663;42.714;23.274;2023-05-02T02:41:17;95087.09;;;15.14;58.71
21011;BME280;10663;42.714;23.274;2023-05-02T02:45:03;95090.28;;;15.16;58.43
21011;BME280;10663;42.714;23.274;2023-05-02T02:46:49;95094.47;;;15.22;58.10
21011;BME280;10663;42.714;23.274;2023-05-02T02:48:35;95099.03;;;15.22;58.18
21011;BME280;10663;42.714;23.274;2023-05-02T02:50:29;95102.16;;;15.29;57.93
21011;BME280;10663;42.714;23.274;2023-05-02T02:52:43;95096.75;;;15.10;58.73
21011;BME280;10663;42.714;23.274;2023-05-02T02:54:25;95103.97;;;15.10;58.75
21011;BME280;10663;42.714;23.274;2023-05-02T02:56:15;95106.56;;;15.15;58.52
21011;BME280;10663;42.714;23.274;2023-05-02T02:57:58;95098.06;;;15.13;58.51
21011;BME280;10663;42.714;23.274;2023-05-02T02:59:36;95110.56;;;15.17;58.34
21011;BME280;10663;42.714;23.274;2023-05-02T03:01:12;95111.63;;;15.16;58.61
21011;BME280;10663;42.714;23.274;2023-05-02T03:02:46;95114.56;;;15.15;58.48
21011;BME280;10663;42.714;23.274;2023-05-02T03:04:18;95116.44;;;15.14;58.43
21011;BME280;10663;42.714;23.274;2023-05-02T03:05:51;95110.91;;;15.11;58.72
21011;BME280;10663;42.714;23.274;2023-05-02T03:07:22;95109.59;;;15.08;58.81
21011;BME280;10663;42.714;23.274;2023-05-02T03:08:53;95104.16;;;14.89;59.44
21011;BME280;10663;42.714;23.274;2023-05-02T03:10:30;95111.22;;;15.04;58.71
21011;BME280;10663;42.714;23.274;2023-05-02T03:12:03;95115.25;;;15.02;58.93
21011;BME280;10663;42.714;23.274;2023-05-02T03:13:35;95122.91;;;15.08;58.80
21011;BME280;10663;42.714;23.274;2023-05-02T03:16:43;95126.28;;;14.90;59.03
21011;BME280;10663;42.714;23.274;2023-05-02T03:18:18;95124.88;;;14.97;58.88
21011;BME280;10663;42.714;23.274;2023-05-02T03:19:50;95136.44;;;14.88;59.08
21011;BME280;10663;42.714;23.274;2023-05-02T03:21:21;95135.50;;;15.03;58.51
21011;BME280;10663;42.714;23.274;2023-05-02T03:22:52;95131.66;;;14.85;58.85
21011;BME280;10663;42.714;23.274;2023-05-02T03:24:23;95123.34;;;14.91;57.96
21011;BME280;10663;42.714;23.274;2023-05-02T03:25:56;95135.59;;;14.64;59.13
21011;BME280;10663;42.714;23.274;2023-05-02T03:27:29;95142.78;;;14.63;58.40
21011;BME280;10663;42.714;23.274;2023-05-02T03:29:02;95137.25;;;14.54;58.42
21011;BME280;10663;42.714;23.274;2023-05-02T03:30:38;95135.75;;;14.43;58.54
21011;BME280;10663;42.714;23.274;2023-05-02T03:32:12;95131.94;;;14.49;58.47
21011;BME280;10663;42.714;23.274;2023-05-02T03:33:45;95134.59;;;14.54;58.24
21011;BME280;10663;42.714;23.274;2023-05-02T03:35:16;95135.94;;;14.52;58.51
21011;BME280;10663;42.714;23.274;2023-05-02T03:36:49;95136.41;;;14.59;58.48
21011;BME280;10663;42.714;23.274;2023-05-02T03:38:21;95131.59;;;14.61;58.35
21011;BME280;10663;42.714;23.274;2023-05-02T03:39:53;95123.16;;;14.49;58.97
21011;BME280;10663;42.714;23.274;2023-05-02T03:41:27;95129.53;;;14.53;59.59
21011;BME280;10663;42.714;23.274;2023-05-02T03:43:05;95133.66;;;14.74;59.15
21011;BME280;10663;42.714;23.274;2023-05-02T03:44:36;95140.47;;;14.85;59.07
21011;BME280;10663;42.714;23.274;2023-05-02T03:46:08;95133.34;;;14.76;59.64
21011;BME280;10663;42.714;23.274;2023-05-02T03:47:44;95136.34;;;14.98;58.98
21011;BME280;10663;42.714;23.274;2023-05-02T03:49:16;95142.25;;;14.95;59.00
21011;BME280;10663;42.714;23.274;2023-05-02T03:50:50;95133.97;;;14.96;59.02
21011;BME280;10663;42.714;23.274;2023-05-02T03:52:21;95132.72;;;15.13;58.56
21011;BME280;10663;42.714;23.274;2023-05-02T03:53:53;95143.88;;;15.20;58.39
21011;BME280;10663;42.714;23.274;2023-05-02T03:55:24;95133.22;;;15.20;58.67
21011;BME280;10663;42.714;23.274;2023-05-02T03:56:58;95131.22;;;15.30;58.15
21011;BME280;10663;42.714;23.274;2023-05-02T03:58:36;95132.34;;;15.48;57.68
21011;BME280;10663;42.714;23.274;2023-05-02T04:00:08;95135.59;;;15.45;57.81
21011;BME280;10663;42.714;23.274;2023-05-02T04:01:42;95140.59;;;15.57;57.35
21011;BME280;10663;42.714;23.274;2023-05-02T04:03:15;95134.16;;;15.58;57.32
21011;BME280;10663;42.714;23.274;2023-05-02T04:04:48;95132.75;;;15.65;56.96
21011;BME280;10663;42.714;23.274;2023-05-02T04:06:22;95145.13;;;15.56;56.98
21011;BME280;10663;42.714;23.274;2023-05-02T04:08:00;95140.69;;;15.70;56.68
21011;BME280;10663;42.714;23.274;2023-05-02T04:09:33;95139.88;;;15.70;56.58
21011;BME280;10663;42.714;23.274;2023-05-02T04:11:10;95151.88;;;15.73;56.22
21011;BME280;10663;42.714;23.274;2023-05-02T04:12:41;95150.19;;;15.53;56.97
21011;BME280;10663;42.714;23.274;2023-05-02T04:14:14;95152.66;;;15.73;56.46
21011;BME280;10663;42.714;23.274;2023-05-02T04:15:47;95147.09;;;15.69;56.63
21011;BME280;10663;42.714;23.274;2023-05-02T04:17:21;95152.47;;;15.88;55.97
21011;BME280;10663;42.714;23.274;2023-05-02T04:18:54;95149.44;;;15.95;56.37
21011;BME280;10663;42.714;23.274;2023-05-02T04:20:26;95147.59;;;16.14;57.69
21011;BME280;10663;42.714;23.274;2023-05-02T04:21:58;95147.53;;;16.19;56.11
21011;BME280;10663;42.714;23.274;2023-05-02T04:23:29;95145.34;;;16.40;54.25
21011;BME280;10663;42.714;23.274;2023-05-02T04:25:05;95151.50;;;16.22;55.30
21011;BME280;10663;42.714;23.274;2023-05-02T04:26:38;95148.34;;;16.38;55.46
21011;BME280;10663;42.714;23.274;2023-05-02T04:28:13;95144.56;;;16.39;55.28
21011;BME280;10663;42.714;23.274;2023-05-02T04:29:47;95143.97;;;16.42;54.34
21011;BME280;10663;42.714;23.274;2023-05-02T04:31:21;95151.88;;;16.34;55.09
21011;BME280;10663;42.714;23.274;2023-05-02T04:32:52;95153.34;;;16.59;54.19
21011;BME280;10663;42.714;23.274;2023-05-02T04:34:24;95148.00;;;16.59;54.87
21011;BME280;10663;42.714;23.274;2023-05-02T04:35:55;95149.19;;;16.71;52.98
21011;BME280;10663;42.714;23.274;2023-05-02T04:37:27;95150.34;;;16.46;53.59
21011;BME280;10663;42.714;23.274;2023-05-02T04:38:58;95151.56;;;16.73;53.61
21011;BME280;10663;42.714;23.274;2023-05-02T04:40:31;95155.84;;;16.74;53.50
21011;BME280;10663;42.714;23.274;2023-05-02T04:42:07;95151.03;;;16.90;53.34
21011;BME280;10663;42.714;23.274;2023-05-02T04:43:45;95152.56;;;16.77;53.36
21011;BME280;10663;42.714;23.274;2023-05-02T04:45:17;95147.78;;;16.93;52.30
21011;BME280;10663;42.714;23.274;2023-05-02T04:46:49;95150.53;;;16.88;52.59
21011;BME280;10663;42.714;23.274;2023-05-02T04:48:19;95142.03;;;16.67;53.07
21011;BME280;10663;42.714;23.274;2023-05-02T04:49:51;95151.50;;;16.78;52.29
21011;BME280;10663;42.714;23.274;2023-05-02T04:51:22;95155.34;;;16.72;53.61
21011;BME280;10663;42.714;23.274;2023-05-02T04:52:54;95155.06;;;16.73;52.16
21011;BME280;10663;42.714;23.274;2023-05-02T04:54:25;95161.97;;;16.56;52.51
21011;BME280;10663;42.714;23.274;2023-05-02T04:55:57;95167.53;;;16.78;52.68
21011;BME280;10663;42.714;23.274;2023-05-02T04:57:28;95153.25;;;16.69;51.94
21011;BME280;10663;42.714;23.274;2023-05-02T04:59:03;95148.91;;;16.54;52.30
21011;BME280;10663;42.714;23.274;2023-05-02T05:00:36;95149.47;;;16.70;51.91
21011;BME280;10663;42.714;23.274;2023-05-02T05:02:08;95150.66;;;16.96;51.89
21011;BME280;10663;42.714;23.274;2023-05-02T05:03:42;95157.31;;;17.12;51.19
21011;BME280;10663;42.714;23.274;2023-05-02T05:05:13;95142.56;;;17.15;51.43
21011;BME280;10663;42.714;23.274;2023-05-02T05:06:45;95149.34;;;17.40;50.10
21011;BME280;10663;42.714;23.274;2023-05-02T05:08:18;95148.97;;;17.46;50.47
21011;BME280;10663;42.714;23.274;2023-05-02T05:09:49;95144.16;;;17.16;50.64
21011;BME280;10663;42.714;23.274;2023-05-02T05:11:20;95144.69;;;17.45;50.78
21011;BME280;10663;42.714;23.274;2023-05-02T05:12:52;95148.19;;;17.46;50.67
21011;BME280;10663;42.714;23.274;2023-05-02T05:14:24;95144.28;;;17.25;50.43
21011;BME280;10663;42.714;23.274;2023-05-02T05:15:57;95142.09;;;17.40;49.91
21011;BME280;10663;42.714;23.274;2023-05-02T05:17:32;95148.97;;;17.60;49.14
21011;BME280;10663;42.714;23.274;2023-05-02T05:19:04;95143.81;;;17.50;49.22
21011;BME280;10663;42.714;23.274;2023-05-02T05:20:35;95143.47;;;17.24;49.55
21011;BME280;10663;42.714;23.274;2023-05-02T05:22:07;95138.44;;;17.36;49.04
21011;BME280;10663;42.714;23.274;2023-05-02T05:23:38;95146.78;;;17.35;49.14
21011;BME280;10663;42.714;23.274;2023-05-02T05:25:10;95146.47;;;17.36;49.10
21011;BME280;10663;42.714;23.274;2023-05-02T05:26:42;95141.91;;;17.37;48.99
21011;BME280;10663;42.714;23.274;2023-05-02T05:28:13;95146.59;;;17.45;48.80
21011;BME280;10663;42.714;23.274;2023-05-02T05:29:47;95146.13;;;17.70;48.10
21011;BME280;10663;42.714;23.274;2023-05-02T05:31:19;95145.75;;;17.17;49.46
21011;BME280;10663;42.714;23.274;2023-05-02T05:32:56;95147.41;;;17.73;48.66
21011;BME280;10663;42.714;23.274;2023-05-02T05:34:28;95159.13;;;17.63;47.64
21011;BME280;10663;42.714;23.274;2023-05-02T05:36:06;95160.59;;;17.69;47.73
21011;BME280;10663;42.714;23.274;2023-05-02T05:37:37;95154.63;;;17.86;47.17
21011;BME280;10663;42.714;23.274;2023-05-02T05:39:11;95147.50;;;17.68;47.56
21011;BME280;10663;42.714;23.274;2023-05-02T05:40:48;95154.75;;;17.81;47.08
21011;BME280;10663;42.714;23.274;2023-05-02T05:42:19;95156.84;;;17.70;48.58
21011;BME280;10663;42.714;23.274;2023-05-02T05:43:53;95154.03;;;17.62;47.23
21011;BME280;10663;42.714;23.274;2023-05-02T05:45:27;95160.09;;;17.94;46.76
21011;BME280;10663;42.714;23.274;2023-05-02T05:46:58;95156.16;;;17.92;46.94
21011;BME280;10663;42.714;23.274;2023-05-02T05:48:30;95161.97;;;17.94;46.46
21011;BME280;10663;42.714;23.274;2023-05-02T05:50:06;95156.03;;;17.97;46.03
21011;BME280;10663;42.714;23.274;2023-05-02T05:51:37;95163.34;;;18.19;45.59
21011;BME280;10663;42.714;23.274;2023-05-02T05:53:08;95156.69;;;18.16;45.85
21011;BME280;10663;42.714;23.274;2023-05-02T05:54:41;95146.69;;;18.08;45.81
21011;BME280;10663;42.714;23.274;2023-05-02T05:56:12;95156.13;;;18.06;45.60
21011;BME280;10663;42.714;23.274;2023-05-02T05:57:49;95159.91;;;17.91;45.77
21011;BME280;10663;42.714;23.274;2023-05-02T05:59:20;95171.81;;;17.99;46.34
21011;BME280;10663;42.714;23.274;2023-05-02T06:00:52;95165.56;;;17.89;45.53
21011;BME280;10663;42.714;23.274;2023-05-02T06:02:22;95172.41;;;17.95;45.42
21011;BME280;10663;42.714;23.274;2023-05-02T06:03:53;95176.47;;;18.20;44.77
21011;BME280;10663;42.714;23.274;2023-05-02T06:05:24;95171.59;;;18.09;46.00
21011;BME280;10663;42.714;23.274;2023-05-02T06:06:56;95168.50;;;18.15;44.81
21011;BME280;10663;42.714;23.274;2023-05-02T06:08:26;95167.03;;;18.09;44.82
21011;BME280;10663;42.714;23.274;2023-05-02T06:09:57;95179.97;;;17.93;45.14
21011;BME280;10663;42.714;23.274;2023-05-02T06:11:29;95171.00;;;18.12;45.05
21011;BME280;10663;42.714;23.274;2023-05-02T06:13:00;95167.94;;;18.05;45.07
21011;BME280;10663;42.714;23.274;2023-05-02T06:14:36;95168.53;;;18.02;44.72
21011;BME280;10663;42.714;23.274;2023-05-02T06:16:08;95170.41;;;18.15;44.31
21011;BME280;10663;42.714;23.274;2023-05-02T06:17:39;95171.81;;;17.99;44.93
21011;BME280;10663;42.714;23.274;2023-05-02T06:19:09;95156.19;;;18.28;44.29
21011;BME280;10663;42.714;23.274;2023-05-02T06:20:40;95159.25;;;18.35;44.13
21011;BME280;10663;42.714;23.274;2023-05-02T06:22:11;95168.69;;;18.32;44.28
21011;BME280;10663;42.714;23.274;2023-05-02T06:23:43;95167.66;;;18.78;43.73
21011;BME280;10663;42.714;23.274;2023-05-02T06:25:15;95161.53;;;19.00;43.18
21011;BME280;10663;42.714;23.274;2023-05-02T06:26:46;95169.97;;;18.35;44.57
21011;BME280;10663;42.714;23.274;2023-05-02T06:28:17;95158.03;;;18.41;44.30
21011;BME280;10663;42.714;23.274;2023-05-02T06:29:51;95165.63;;;18.75;43.13
21011;BME280;10663;42.714;23.274;2023-05-02T06:31:22;95162.63;;;18.99;42.63
21011;BME280;10663;42.714;23.274;2023-05-02T06:32:53;95161.22;;;19.01;42.45
21011;BME280;10663;42.714;23.274;2023-05-02T06:34:24;95160.31;;;18.84;43.21
21011;BME280;10663;42.714;23.274;2023-05-02T06:35:55;95167.56;;;18.83;42.97
21011;BME280;10663;42.714;23.274;2023-05-02T06:37:26;95170.13;;;19.11;42.37
21011;BME280;10663;42.714;23.274;2023-05-02T06:38:57;95165.63;;;19.28;41.75
21011;BME280;10663;42.714;23.274;2023-05-02T06:40:28;95165.06;;;19.40;41.62
21011;BME280;10663;42.714;23.274;2023-05-02T06:41:59;95165.06;;;19.09;42.51
21011;BME280;10663;42.714;23.274;2023-05-02T06:43:31;95169.78;;;19.12;42.44
21011;BME280;10663;42.714;23.274;2023-05-02T06:45:04;95167.66;;;18.78;43.63
21011;BME280;10663;42.714;23.274;2023-05-02T06:46:35;95162.38;;;18.64;43.49
21011;BME280;10663;42.714;23.274;2023-05-02T06:48:06;95160.19;;;19.11;42.59
21011;BME280;10663;42.714;23.274;2023-05-02T06:49:37;95166.63;;;18.88;42.60
21011;BME280;10663;42.714;23.274;2023-05-02T06:51:08;95162.97;;;19.06;42.68
21011;BME280;10663;42.714;23.274;2023-05-02T06:52:39;95159.47;;;19.28;41.78
21011;BME280;10663;42.714;23.274;2023-05-02T06:54:10;95157.88;;;19.27;41.23
21011;BME280;10663;42.714;23.274;2023-05-02T06:55:42;95161.22;;;19.32;42.42
21011;BME280;10663;42.714;23.274;2023-05-02T06:57:14;95165.19;;;19.35;41.07
21011;BME280;10663;42.714;23.274;2023-05-02T06:58:45;95162.38;;;19.40;40.81
21011;BME280;10663;42.714;23.274;2023-05-02T07:00:16;95157.00;;;19.09;41.38
21011;BME280;10663;42.714;23.274;2023-05-02T07:01:47;95155.84;;;19.55;40.41
21011;BME280;10663;42.714;23.274;2023-05-02T07:03:18;95154.19;;;19.45;40.65
21011;BME280;10663;42.714;23.274;2023-05-02T07:04:49;95153.16;;;19.32;41.07
21011;BME280;10663;42.714;23.274;2023-05-02T07:06:20;95161.22;;;19.55;40.61
21011;BME280;10663;42.714;23.274;2023-05-02T07:07:51;95156.69;;;19.64;40.45
21011;BME280;10663;42.714;23.274;2023-05-02T07:09:22;95158.16;;;19.17;41.67
21011;BME280;10663;42.714;23.274;2023-05-02T07:10:52;95156.44;;;19.52;40.43
21011;BME280;10663;42.714;23.274;2023-05-02T07:12:24;95164.47;;;19.74;39.98
21011;BME280;10663;42.714;23.274;2023-05-02T07:13:56;95152.34;;;19.94;40.17
21011;BME280;10663;42.714;23.274;2023-05-02T07:15:27;95153.78;;;20.00;39.42
21011;BME280;10663;42.714;23.274;2023-05-02T07:16:58;95160.59;;;20.06;38.75
21011;BME280;10663;42.714;23.274;2023-05-02T07:18:29;95165.59;;;19.82;39.27
21011;BME280;10663;42.714;23.274;2023-05-02T07:20:00;95155.38;;;20.01;39.63
21011;BME280;10663;42.714;23.274;2023-05-02T07:21:31;95167.88;;;20.05;38.60
21011;BME280;10663;42.714;23.274;2023-05-02T07:23:02;95162.97;;;20.07;38.68
21011;BME280;10663;42.714;23.274;2023-05-02T07:24:33;95174.56;;;19.77;39.24
21011;BME280;10663;42.714;23.274;2023-05-02T07:26:04;95168.50;;;19.94;39.02
21011;BME280;10663;42.714;23.274;2023-05-02T07:27:36;95163.16;;;20.20;38.83
21011;BME280;10663;42.714;23.274;2023-05-02T07:29:07;95166.50;;;20.25;38.51
21011;BME280;10663;42.714;23.274;2023-05-02T07:30:39;95166.41;;;20.47;37.30
21011;BME280;10663;42.714;23.274;2023-05-02T07:32:10;95164.16;;;20.41;37.95
21011;BME280;10663;42.714;23.274;2023-05-02T07:33:40;95162.13;;;20.46;37.20
21011;BME280;10663;42.714;23.274;2023-05-02T07:35:12;95162.94;;;20.47;37.03
21011;BME280;10663;42.714;23.274;2023-05-02T07:36:43;95160.72;;;20.75;36.72
21011;BME280;10663;42.714;23.274;2023-05-02T07:38:14;95167.50;;;20.55;37.08
21011;BME280;10663;42.714;23.274;2023-05-02T07:39:45;95162.63;;;20.57;37.23
21011;BME280;10663;42.714;23.274;2023-05-02T07:41:15;95164.03;;;20.72;36.94
21011;BME280;10663;42.714;23.274;2023-05-02T07:42:47;95163.16;;;20.20;38.42
21011;BME280;10663;42.714;23.274;2023-05-02T07:44:18;95165.44;;;20.78;36.53
21011;BME280;10663;42.714;23.274;2023-05-02T07:45:49;95168.28;;;20.99;36.16
21011;BME280;10663;42.714;23.274;2023-05-02T07:47:20;95169.72;;;20.96;36.41
21011;BME280;10663;42.714;23.274;2023-05-02T07:48:51;95170.03;;;20.60;36.73
21011;BME280;10663;42.714;23.274;2023-05-02T07:50:23;95174.81;;;20.72;36.22
21011;BME280;10663;42.714;23.274;2023-05-02T07:51:54;95166.22;;;20.96;36.26
21011;BME280;10663;42.714;23.274;2023-05-02T07:53:25;95168.75;;;21.26;35.14
21011;BME280;10663;42.714;23.274;2023-05-02T07:54:56;95165.84;;;21.49;34.84
21011;BME280;10663;42.714;23.274;2023-05-02T07:56:28;95162.09;;;21.15;35.30
21011;BME280;10663;42.714;23.274;2023-05-02T07:57:59;95162.59;;;21.09;35.55
21011;BME280;10663;42.714;23.274;2023-05-02T07:59:36;95165.28;;;21.17;35.38
21011;BME280;10663;42.714;23.274;2023-05-02T08:01:06;95166.06;;;21.09;35.39
21011;BME280;10663;42.714;23.274;2023-05-02T08:02:37;95165.44;;;21.21;35.38
21011;BME280;10663;42.714;23.274;2023-05-02T08:04:08;95161.66;;;20.87;35.57
21011;BME280;10663;42.714;23.274;2023-05-02T08:05:42;95159.59;;;21.19;34.53
21011;BME280;10663;42.714;23.274;2023-05-02T08:07:13;95160.53;;;20.97;35.32
21011;BME280;10663;42.714;23.274;2023-05-02T08:08:44;95157.13;;;21.52;34.47
21011;BME280;10663;42.714;23.274;2023-05-02T08:10:15;95153.00;;;21.54;34.32
21011;BME280;10663;42.714;23.274;2023-05-02T08:11:46;95147.25;;;21.64;33.82
21011;BME280;10663;42.714;23.274;2023-05-02T08:13:17;95169.06;;;21.25;34.04
21011;BME280;10663;42.714;23.274;2023-05-02T08:14:48;95158.13;;;21.21;34.57
21011;BME280;10663;42.714;23.274;2023-05-02T08:16:19;95163.75;;;21.63;33.93
21011;BME280;10663;42.714;23.274;2023-05-02T08:17:50;95156.81;;;21.45;34.23
21011;BME280;10663;42.714;23.274;2023-05-02T08:19:21;95149.88;;;21.82;33.64
21011;BME280;10663;42.714;23.274;2023-05-02T08:20:54;95152.91;;;21.72;33.59